Llantrisant, United Kingdom
Current Conditions -  °F | °C
As of 6:20 AM on Friday 31 Oct 2014 (Local Time) from EGFF Reporting Station
Clear Clear  
Wind Chill: 15°   Ceiling: Unl
Heat Index: 15°   Visibility: 5mi
Dew Point: 14°   Wind: 8mph
Humidity: 94%   Direction: 170°S
Pressure: 29.94"   Gusts: NA
Location:  51.54°N, 3.37°W
Report Text: EGFF 310620Z AUTO 17007KT 8000 NCD 15/14 Q1014
Loading
Personal Weather Stations






























Interactive Weather Map
Tropical Storm Tracking
New forecast layout! Learn more

10-Day Weather Forecast

Advertisements
Track Severe Weather on mobile